Time;durP1;ratioP1;P1;durP2;ratioP2;P2;SDS_P1;SDS_P2;PMS_P1;PMS_P2;Temp;Humidity;BMP_temperature;BMP_pressure;BME280_temperature;BME280_humidity;BME280_pressure;Samples;Min_cycle;Max_cycle;Signal;HPM_P1;HPM_P2
2022/12/11 00:00:02;;;;;;;65.03;27.53;;;0.40;99.90;;;;;;5044685;28;20457;-72
2022/12/11 00:02:28;;;;;;;62.97;27.63;;;0.20;99.90;;;;;;5041272;28;20437;-72
2022/12/11 00:04:54;;;;;;;67.47;29.53;;;0.30;99.90;;;;;;5045136;28;20436;-74
2022/12/11 00:07:19;;;;;;;63.80;27.93;;;0.40;99.90;;;;;;5042030;28;21147;-70
2022/12/11 00:09:45;;;;;;;61.30;27.65;;;0.20;99.90;;;;;;5046376;28;20421;-73
2022/12/11 00:12:11;;;;;;;59.30;26.20;;;0.00;99.90;;;;;;5045119;28;20425;-74
2022/12/11 00:14:36;;;;;;;67.85;28.98;;;0.30;99.90;;;;;;5043314;28;20429;-75
2022/12/11 00:17:02;;;;;;;60.90;27.52;;;0.20;99.90;;;;;;5043094;28;20496;-72
2022/12/11 00:19:28;;;;;;;62.75;28.52;;;0.30;99.90;;;;;;5042198;28;20425;-74
2022/12/11 00:21:54;;;;;;;64.07;28.43;;;0.00;99.90;;;;;;5043249;28;21018;-72
2022/12/11 00:24:19;;;;;;;55.10;25.90;;;0.10;99.90;;;;;;5043196;28;20777;-70
2022/12/11 00:26:45;;;;;;;54.37;26.57;;;0.30;99.90;;;;;;5042380;28;20953;-74
2022/12/11 00:29:13;;;;;;;61.03;28.43;;;0.10;99.90;;;;;;5044337;28;20480;-73
2022/12/11 00:31:40;;;;;;;55.97;26.83;;;0.50;99.90;;;;;;5040417;28;20429;-73
2022/12/11 00:34:06;;;;;;;59.30;27.17;;;0.00;99.90;;;;;;5043735;28;20915;-73
2022/12/11 00:36:33;;;;;;;58.13;27.02;;;0.10;99.90;;;;;;5039172;28;20425;-72
2022/12/11 00:39:00;;;;;;;60.10;28.52;;;0.40;99.90;;;;;;5042683;28;20482;-72
2022/12/11 00:41:25;;;;;;;59.70;30.10;;;0.20;99.90;;;;;;5044168;28;20436;-74
2022/12/11 00:43:51;;;;;;;65.90;31.63;;;0.20;99.90;;;;;;5043363;28;20434;-72
2022/12/11 00:46:17;;;;;;;76.83;29.83;;;0.10;99.90;;;;;;5043571;28;20490;-72
2022/12/11 00:48:43;;;;;;;69.03;28.77;;;0.10;99.90;;;;;;5037185;28;20783;-73
2022/12/11 00:51:09;;;;;;;64.30;27.45;;;0.50;99.90;;;;;;5041730;28;20424;-72
2022/12/11 00:53:36;;;;;;;53.90;27.00;;;0.10;99.90;;;;;;5023093;28;20461;-72
2022/12/11 00:56:12;;;;;;;66.88;29.98;;;0.30;99.90;;;;;;5041371;28;20480;-74
2022/12/11 00:58:37;;;;;;;68.65;31.15;;;0.20;99.90;;;;;;5045792;28;21597;-72
2022/12/11 01:01:09;;;;;;;58.33;28.47;;;0.30;99.90;;;;;;5041149;28;20448;-73
2022/12/11 01:03:35;;;;;;;64.13;28.35;;;0.30;99.90;;;;;;5043797;28;20872;-72
2022/12/11 01:06:02;;;;;;;58.63;27.55;;;0.20;99.90;;;;;;5043376;28;20816;-73
2022/12/11 01:08:28;;;;;;;60.60;26.63;;;0.50;99.90;;;;;;5027788;28;20846;-72
2022/12/11 01:11:04;;;;;;;64.90;29.17;;;0.60;99.90;;;;;;5044661;28;20425;-71
2022/12/11 01:13:30;;;;;;;67.53;28.08;;;0.60;99.90;;;;;;5044250;28;20414;-74
2022/12/11 01:15:57;;;;;;;81.25;29.08;;;0.10;99.90;;;;;;5044171;28;20436;-72
2022/12/11 01:18:23;;;;;;;69.95;30.00;;;0.20;99.90;;;;;;5025945;28;20515;-71
2022/12/11 01:20:49;;;;;;;62.40;27.77;;;0.40;99.90;;;;;;5043839;28;20499;-74
2022/12/11 01:23:14;;;;;;;65.97;27.80;;;0.50;99.90;;;;;;5045969;28;20445;-73
2022/12/11 01:25:40;;;;;;;67.67;30.23;;;0.20;99.90;;;;;;5041449;28;20429;-72
2022/12/11 01:28:07;;;;;;;58.30;28.48;;;0.50;99.90;;;;;;5015744;28;20437;-74
2022/12/11 01:30:33;;;;;;;69.07;30.92;;;0.40;99.90;;;;;;5047086;28;20420;-73
2022/12/11 01:32:59;;;;;;;68.03;29.42;;;0.60;99.90;;;;;;5046105;28;20540;-72
2022/12/11 01:35:25;;;;;;;59.42;27.27;;;0.50;99.90;;;;;;5046908;28;20434;-74
2022/12/11 01:37:51;;;;;;;64.17;29.07;;;0.30;99.90;;;;;;5047051;28;20425;-71
2022/12/11 01:40:18;;;;;;;81.55;32.03;;;0.60;99.90;;;;;;5047913;28;21067;-73
2022/12/11 01:42:44;;;;;;;70.23;29.53;;;0.50;99.90;;;;;;5047080;28;20421;-71
2022/12/11 01:45:32;;;;;;;66.90;28.23;;;0.70;99.90;;;;;;5046711;28;20440;-75
2022/12/11 01:48:05;;;;;;;57.60;26.45;;;0.80;99.90;;;;;;5043911;28;20421;-72
2022/12/11 01:50:33;;;;;;;68.05;29.05;;;0.70;99.90;;;;;;5046311;28;20417;-70
2022/12/11 01:52:59;;;;;;;62.40;26.80;;;0.80;99.90;;;;;;5047819;28;20517;-73
2022/12/11 01:55:25;;;;;;;71.75;29.95;;;0.50;99.90;;;;;;5046415;28;20513;-72
2022/12/11 01:57:51;;;;;;;60.25;27.70;;;0.50;99.90;;;;;;5047013;28;20510;-71
2022/12/11 02:00:19;;;;;;;59.93;28.00;;;0.50;99.90;;;;;;5030131;28;20432;-70
2022/12/11 02:02:45;;;;;;;62.92;26.30;;;0.90;99.90;;;;;;5045315;28;20464;-74
2022/12/11 02:05:11;;;;;;;52.47;24.67;;;0.60;99.90;;;;;;5046412;28;20943;-72
2022/12/11 02:08:02;;;;;;;67.68;28.90;;;0.60;99.90;;;;;;5041798;28;20433;-72
2022/12/11 02:10:45;;;;;;;67.80;29.58;;;0.80;99.90;;;;;;5036269;28;20460;-74
2022/12/11 02:13:41;;;;;;;67.85;28.13;;;0.60;99.90;;;;;;5097039;22;20441;-82
2022/12/11 02:16:35;;;;;;;73.40;31.83;;;0.90;99.90;;;;;;5004705;28;20440;-82
2022/12/11 02:19:28;;;;;;;68.20;27.83;;;0.70;99.90;;;;;;5002723;28;20857;-82
2022/12/11 02:21:56;;;;;;;61.75;28.42;;;0.70;99.90;;;;;;4999936;28;20447;-78
2022/12/11 02:24:52;;;;;;;59.30;27.90;;;0.70;99.90;;;;;;5011286;28;20432;-82
2022/12/11 02:28:03;;;;;;;59.30;27.90;;;0.70;99.90;;;;;;5008996;28;20536;-76
2022/12/11 02:30:30;;;;;;;59.00;27.55;;;0.70;99.90;;;;;;4973210;28;22281;-82
2022/12/11 02:32:57;;;;;;;72.15;30.30;;;0.80;99.90;;;;;;4991066;28;20486;-82
2022/12/11 02:35:40;;;;;;;65.50;27.77;;;1.20;99.90;;;;;;5010045;28;20432;-82
2022/12/11 02:38:26;;;;;;;71.90;29.27;;;0.60;99.90;;;;;;5009672;28;20451;-81
2022/12/11 02:40:53;;;;;;;64.00;26.33;;;0.80;99.90;;;;;;5007203;28;21101;-81
2022/12/11 02:43:21;;;;;;;66.13;27.00;;;0.70;99.90;;;;;;5016261;28;20419;-79
2022/12/11 02:45:48;;;;;;;63.13;27.40;;;0.90;99.90;;;;;;5010766;28;20474;-79
2022/12/11 02:48:15;;;;;;;64.18;28.38;;;0.70;99.90;;;;;;5009118;28;20508;-82
2022/12/11 02:50:48;;;;;;;59.00;26.63;;;0.60;99.90;;;;;;5004474;28;20434;-81
2022/12/11 02:53:20;;;;;;;69.45;27.98;;;0.80;99.90;;;;;;5006847;28;20783;-82
2022/12/11 02:55:51;;;;;;;65.38;27.17;;;0.70;99.90;;;;;;5010380;28;20432;-81
2022/12/11 02:58:26;;;;;;;66.68;27.35;;;1.10;99.90;;;;;;4999301;28;20425;-80
2022/12/11 03:00:52;;;;;;;66.95;29.50;;;1.00;99.90;;;;;;5009209;28;20433;-77
2022/12/11 03:03:17;;;;;;;56.30;25.40;;;0.60;99.90;;;;;;5021435;28;20431;-79
2022/12/11 03:05:45;;;;;;;65.93;27.60;;;0.70;99.90;;;;;;5011365;28;20443;-82
2022/12/11 03:08:11;;;;;;;66.20;27.58;;;0.80;99.90;;;;;;5010565;28;20440;-81
2022/12/11 03:10:36;;;;;;;64.43;27.20;;;0.70;99.90;;;;;;4996532;28;20835;-81
2022/12/11 03:13:03;;;;;;;53.60;25.10;;;0.60;99.90;;;;;;5021483;28;20436;-81
2022/12/11 03:15:47;;;;;;;62.72;26.95;;;0.60;99.90;;;;;;5009450;28;20509;-82
2022/12/11 03:18:23;;;;;;;52.00;23.70;;;1.00;99.90;;;;;;4989359;28;20427;-83
2022/12/11 03:21:15;;;;;;;51.53;23.75;;;0.90;99.90;;;;;;5003666;28;20877;-82
2022/12/11 03:24:04;;;;;;;62.45;27.10;;;0.90;99.90;;;;;;4994830;28;20426;-82
2022/12/11 03:26:34;;;;;;;57.03;24.67;;;0.60;99.90;;;;;;5001193;28;20800;-81
2022/12/11 03:29:03;;;;;;;53.10;25.40;;;1.00;99.90;;;;;;4998102;28;20422;-81
2022/12/11 03:31:37;;;;;;;58.83;25.00;;;0.80;99.90;;;;;;5006927;28;20954;-81
2022/12/11 03:34:15;;;;;;;55.55;25.92;;;0.60;99.90;;;;;;5010398;28;20427;-77
2022/12/11 03:36:42;;;;;;;58.13;27.95;;;1.00;99.90;;;;;;5019465;28;20479;-79
2022/12/11 03:39:14;;;;;;;69.93;28.13;;;0.70;99.90;;;;;;5020488;28;20454;-81
2022/12/11 03:41:41;;;;;;;62.90;25.92;;;1.20;99.90;;;;;;4998975;28;20469;-82
2022/12/11 03:44:08;;;;;;;71.82;28.40;;;1.00;99.90;;;;;;5009885;28;20418;-81
2022/12/11 03:46:37;;;;;;;66.77;28.63;;;0.80;99.90;;;;;;5011007;28;20435;-80
2022/12/11 03:49:11;;;;;;;59.93;26.13;;;0.70;99.90;;;;;;5014082;28;20436;-81
2022/12/11 03:51:39;;;;;;;59.40;26.63;;;0.80;99.90;;;;;;5008358;28;21037;-80
2022/12/11 03:54:05;;;;;;;64.68;26.23;;;1.20;99.90;;;;;;5011113;28;20440;-85
2022/12/11 03:56:33;;;;;;;65.50;27.88;;;1.10;99.90;;;;;;5012962;28;20413;-84
2022/12/11 03:58:58;;;;;;;59.47;27.33;;;0.70;99.90;;;;;;5006699;28;20461;-85
2022/12/11 04:01:24;;;;;;;67.18;27.85;;;1.10;99.90;;;;;;4992293;28;20448;-85
2022/12/11 04:03:49;;;;;;;64.28;29.25;;;1.00;99.90;;;;;;4983355;28;20842;-86
2022/12/11 04:06:15;;;;;;;62.25;27.25;;;1.10;99.90;;;;;;5022854;28;20436;-82
2022/12/11 04:08:41;;;;;;;68.93;27.20;;;1.20;99.90;;;;;;5025526;28;20424;-85
2022/12/11 04:15:00;;;;;;;66.60;28.33;;;0.70;99.90;;;;;;5029487;28;20417;-82
2022/12/11 04:16:36;;;;;;;70.78;29.25;;;1.10;99.90;;;;;;5023249;28;20464;-83
2022/12/11 04:24:31;;;;;;;69.93;29.67;;;1.10;99.90;;;;;;5005408;28;20918;-85
2022/12/11 04:26:57;;;;;;;63.15;27.52;;;1.00;99.90;;;;;;5009388;28;20482;-84
2022/12/11 04:29:22;;;;;;;63.63;28.27;;;1.10;99.90;;;;;;5004657;28;20551;-79
2022/12/11 04:31:49;;;;;;;67.00;29.50;;;1.10;99.90;;;;;;5024136;28;20434;-78
2022/12/11 04:34:15;;;;;;;66.88;28.70;;;1.00;99.90;;;;;;5026355;28;20484;-77
2022/12/11 04:36:41;;;;;;;73.50;28.95;;;1.00;99.90;;;;;;5020117;28;20455;-83
2022/12/11 04:39:07;;;;;;;69.32;28.98;;;0.90;99.90;;;;;;5006910;28;20427;-83
2022/12/11 04:41:33;;;;;;;68.53;29.70;;;1.00;99.90;;;;;;5018748;28;20464;-82
2022/12/11 04:43:59;;;;;;;69.35;27.77;;;1.10;99.90;;;;;;5031069;28;20407;-82
2022/12/11 04:46:25;;;;;;;67.40;29.33;;;1.00;99.90;;;;;;5029018;28;20453;-83
2022/12/11 04:48:52;;;;;;;67.43;28.63;;;0.70;99.90;;;;;;5020479;28;20779;-84
2022/12/11 04:51:18;;;;;;;62.85;27.52;;;0.60;99.90;;;;;;5002430;28;20729;-77
2022/12/11 04:53:44;;;;;;;62.97;27.73;;;0.60;99.90;;;;;;5011334;28;20425;-83
2022/12/11 04:56:13;;;;;;;65.40;26.90;;;0.70;99.90;;;;;;5009484;28;20447;-83
2022/12/11 04:58:40;;;;;;;61.15;26.77;;;1.00;99.90;;;;;;4992758;28;20413;-84
2022/12/11 05:01:18;;;;;;;64.70;30.17;;;1.00;99.90;;;;;;5010961;28;20439;-85
2022/12/11 05:03:44;;;;;;;62.40;28.23;;;0.90;99.90;;;;;;4991662;28;20442;-83
2022/12/11 05:06:11;;;;;;;60.17;27.45;;;0.70;99.90;;;;;;5007975;28;20846;-83
2022/12/11 05:08:39;;;;;;;60.33;27.13;;;1.20;99.90;;;;;;5008615;28;20429;-82
2022/12/11 05:11:08;;;;;;;59.53;26.35;;;0.70;99.90;;;;;;5007167;28;20444;-84
2022/12/11 05:13:34;;;;;;;54.45;25.55;;;0.80;99.90;;;;;;5007278;28;20459;-83
2022/12/11 05:16:03;;;;;;;67.45;29.45;;;0.70;99.90;;;;;;5021096;28;20419;-84
2022/12/11 05:18:29;;;;;;;64.70;28.88;;;1.10;99.90;;;;;;5012095;28;20811;-80
2022/12/11 05:21:00;;;;;;;55.65;26.02;;;1.10;99.90;;;;;;5009596;28;20443;-84
2022/12/11 05:23:26;;;;;;;68.07;29.77;;;1.00;99.90;;;;;;5015260;28;20870;-82
2022/12/11 05:25:57;;;;;;;62.43;29.03;;;0.80;99.90;;;;;;4992360;28;20514;-84
2022/12/11 05:28:25;;;;;;;60.85;26.33;;;0.90;99.90;;;;;;4990784;28;20434;-79
2022/12/11 05:31:15;;;;;;;66.38;28.50;;;0.80;99.90;;;;;;5002720;28;20760;-81
2022/12/11 05:33:42;;;;;;;56.88;27.33;;;1.10;99.90;;;;;;5004880;28;20756;-84
2022/12/11 05:36:12;;;;;;;55.08;25.98;;;1.10;99.90;;;;;;5008433;28;20784;-82
2022/12/11 05:38:38;;;;;;;61.55;27.42;;;1.10;99.90;;;;;;5005985;28;20514;-83
2022/12/11 05:41:05;;;;;;;62.08;28.45;;;1.00;99.90;;;;;;5010335;28;20520;-82
2022/12/11 05:43:34;;;;;;;57.30;27.70;;;1.20;99.90;;;;;;4991910;28;20506;-82
2022/12/11 05:46:26;;;;;;;56.25;27.20;;;1.10;99.90;;;;;;4989743;28;20411;-84
2022/12/11 05:48:55;;;;;;;61.92;28.48;;;0.80;99.90;;;;;;5013446;28;20419;-81
2022/12/11 05:51:21;;;;;;;56.30;24.35;;;1.10;99.90;;;;;;5008489;28;20500;-83
2022/12/11 05:53:49;;;;;;;55.65;27.13;;;1.10;99.90;;;;;;5018140;28;20749;-80
2022/12/11 05:56:17;;;;;;;52.13;24.05;;;1.20;99.90;;;;;;5016158;28;20434;-82
2022/12/11 05:58:44;;;;;;;54.90;25.85;;;0.80;99.90;;;;;;5009949;28;20428;-83
2022/12/11 06:01:16;;;;;;;56.83;25.55;;;0.90;99.90;;;;;;5008008;28;20963;-84
2022/12/11 06:03:43;;;;;;;59.58;27.63;;;0.60;99.90;;;;;;4979088;28;20951;-87
2022/12/11 06:06:09;;;;;;;57.10;25.75;;;1.00;99.90;;;;;;5008749;28;20431;-84
2022/12/11 06:08:35;;;;;;;63.83;30.00;;;0.90;99.90;;;;;;5008439;28;20432;-83
2022/12/11 06:11:00;;;;;;;63.20;28.83;;;0.50;99.90;;;;;;5005218;28;20434;-85
2022/12/11 06:13:26;;;;;;;66.85;29.25;;;1.00;99.90;;;;;;5009116;28;20424;-84
2022/12/11 06:15:52;;;;;;;66.28;30.35;;;1.10;99.90;;;;;;5012300;28;20428;-84
2022/12/11 06:18:18;;;;;;;69.93;31.23;;;0.50;99.90;;;;;;5010420;28;20425;-79
2022/12/11 06:20:43;;;;;;;55.30;26.57;;;0.50;99.90;;;;;;5012580;28;20453;-84
2022/12/11 06:23:09;;;;;;;63.63;28.07;;;1.00;99.90;;;;;;5012211;28;20439;-80
2022/12/11 06:25:38;;;;;;;60.80;28.33;;;1.00;99.90;;;;;;5008669;28;20428;-85
2022/12/11 06:28:04;;;;;;;58.92;28.60;;;0.90;99.90;;;;;;5010579;28;20420;-83
2022/12/11 06:30:29;;;;;;;62.10;27.90;;;0.80;99.90;;;;;;5008985;28;21000;-82
2022/12/11 06:32:57;;;;;;;72.93;28.85;;;0.70;99.90;;;;;;4998885;28;21929;-82
2022/12/11 06:35:23;;;;;;;61.83;27.30;;;0.60;99.90;;;;;;5009546;28;20421;-85
2022/12/11 06:37:49;;;;;;;60.43;28.33;;;0.60;99.90;;;;;;4999009;28;20429;-79
2022/12/11 06:40:15;;;;;;;62.10;27.83;;;1.00;99.90;;;;;;5010710;28;20834;-82
2022/12/11 06:42:41;;;;;;;61.38;29.30;;;0.60;99.90;;;;;;5012218;28;20431;-80
2022/12/11 06:45:07;;;;;;;61.77;28.73;;;0.70;99.90;;;;;;5005546;28;20468;-83
2022/12/11 06:47:32;;;;;;;61.33;27.83;;;0.70;99.90;;;;;;4992067;28;20435;-84
2022/12/11 06:49:58;;;;;;;67.50;29.48;;;0.90;99.90;;;;;;5008918;28;20417;-84
2022/12/11 06:52:26;;;;;;;58.28;27.58;;;1.10;99.90;;;;;;5012098;28;20425;-84
2022/12/11 06:54:52;;;;;;;60.95;27.55;;;0.80;99.90;;;;;;5000359;28;20778;-83
2022/12/11 06:57:18;;;;;;;71.18;30.48;;;1.00;99.90;;;;;;5007085;28;20572;-81
2022/12/11 06:59:44;;;;;;;70.78;31.08;;;0.70;99.90;;;;;;5020319;28;20946;-84
2022/12/11 07:02:17;;;;;;;63.88;29.33;;;0.90;99.90;;;;;;5012833;28;20538;-83
2022/12/11 07:04:43;;;;;;;62.70;28.17;;;0.90;99.90;;;;;;5014604;28;20473;-82
2022/12/11 07:07:10;;;;;;;69.25;29.38;;;0.90;99.90;;;;;;5026036;28;20519;-85
2022/12/11 07:09:37;;;;;;;73.43;30.27;;;1.00;99.90;;;;;;5016776;28;20520;-86
2022/12/11 07:12:05;;;;;;;71.68;29.98;;;1.00;99.90;;;;;;5015007;28;20434;-80
2022/12/11 07:14:31;;;;;;;77.97;30.77;;;1.00;99.90;;;;;;5032073;28;20431;-86
2022/12/11 07:16:57;;;;;;;72.43;30.15;;;1.00;99.90;;;;;;5015788;28;20640;-82
2022/12/11 07:19:23;;;;;;;66.05;28.83;;;0.70;99.90;;;;;;5023107;28;20425;-79
2022/12/11 07:21:49;;;;;;;66.43;28.60;;;0.60;99.90;;;;;;5032608;28;20436;-80
2022/12/11 07:24:15;;;;;;;71.23;29.83;;;0.50;99.90;;;;;;5015573;28;20952;-84
2022/12/11 07:26:41;;;;;;;70.43;30.55;;;0.70;99.90;;;;;;4995416;28;20421;-83
2022/12/11 07:29:07;;;;;;;75.78;30.95;;;1.00;99.90;;;;;;5009388;28;20418;-81
2022/12/11 07:31:33;;;;;;;65.75;27.60;;;0.60;99.90;;;;;;5004406;28;20433;-81
2022/12/11 07:34:04;;;;;;;77.00;30.73;;;0.90;99.90;;;;;;5007743;28;20438;-83
2022/12/11 07:36:31;;;;;;;74.22;29.58;;;0.50;99.90;;;;;;5009534;28;20791;-82
2022/12/11 07:38:58;;;;;;;74.38;31.30;;;0.90;99.90;;;;;;5008607;28;20463;-82
2022/12/11 07:41:26;;;;;;;71.88;31.65;;;0.70;99.90;;;;;;5010142;28;20444;-78
2022/12/11 07:43:52;;;;;;;71.85;30.33;;;1.00;99.90;;;;;;5009761;28;20793;-85
2022/12/11 07:46:22;;;;;;;72.53;29.00;;;1.10;99.90;;;;;;5005341;28;20434;-87
2022/12/11 07:48:48;;;;;;;71.00;31.95;;;0.60;99.90;;;;;;5015678;28;20494;-78
2022/12/11 07:51:15;;;;;;;73.07;32.88;;;0.90;99.90;;;;;;5026767;28;20456;-86
2022/12/11 07:53:42;;;;;;;73.68;31.98;;;0.50;99.90;;;;;;5002105;28;20730;-85
2022/12/11 07:56:08;;;;;;;70.80;31.25;;;0.60;99.90;;;;;;5003970;28;20777;-84
2022/12/11 07:58:34;;;;;;;78.93;34.03;;;0.50;99.90;;;;;;5007539;28;20433;-88
2022/12/11 08:01:00;;;;;;;76.90;32.92;;;0.90;99.90;;;;;;5018124;28;20445;-84
2022/12/11 08:03:26;;;;;;;76.23;33.10;;;1.10;99.90;;;;;;5010790;28;20408;-86
2022/12/11 08:05:52;;;;;;;72.43;30.80;;;1.00;99.90;;;;;;5011853;28;20421;-86
2022/12/11 08:08:18;;;;;;;69.60;30.33;;;0.70;99.90;;;;;;5009377;28;20921;-79
2022/12/11 08:10:44;;;;;;;81.60;32.27;;;0.80;99.90;;;;;;5007348;28;20488;-86
2022/12/11 08:13:10;;;;;;;79.50;34.55;;;1.10;99.90;;;;;;4990881;28;20789;-86
2022/12/11 08:15:36;;;;;;;79.13;34.20;;;1.10;99.90;;;;;;5007894;28;20470;-86
2022/12/11 08:18:03;;;;;;;81.47;34.05;;;1.00;99.90;;;;;;5010181;28;20807;-86
2022/12/11 08:20:29;;;;;;;78.03;32.30;;;1.10;99.90;;;;;;5016491;28;20543;-85
2022/12/11 08:22:55;;;;;;;81.50;33.80;;;0.70;99.90;;;;;;5008598;28;20428;-87
2022/12/11 08:25:23;;;;;;;79.82;32.42;;;0.90;99.90;;;;;;5009278;28;20495;-88
2022/12/11 08:27:49;;;;;;;73.03;31.10;;;1.10;99.90;;;;;;5004955;28;20436;-85
2022/12/11 08:30:14;;;;;;;73.53;31.43;;;1.20;99.90;;;;;;5023331;28;20458;-86
2022/12/11 08:32:40;;;;;;;72.67;33.07;;;0.70;99.90;;;;;;5008943;28;20460;-85
2022/12/11 08:35:06;;;;;;;85.68;35.67;;;1.10;99.90;;;;;;5008950;28;20790;-84
2022/12/11 08:37:33;;;;;;;78.15;32.20;;;0.60;99.90;;;;;;5008645;28;20432;-85
2022/12/11 08:39:59;;;;;;;80.83;32.37;;;0.90;99.90;;;;;;5008503;28;20540;-86
2022/12/11 08:42:25;;;;;;;82.88;32.75;;;0.80;99.90;;;;;;5008920;28;20433;-85
2022/12/11 08:44:50;;;;;;;72.05;31.88;;;0.80;99.90;;;;;;5003525;28;20425;-80
2022/12/11 08:47:16;;;;;;;75.45;30.00;;;0.90;99.90;;;;;;5002533;28;20430;-85
2022/12/11 08:49:42;;;;;;;76.90;32.80;;;1.00;99.90;;;;;;5035366;28;20431;-79
2022/12/11 08:52:08;;;;;;;74.72;33.33;;;0.90;99.90;;;;;;4995904;28;20544;-82
2022/12/11 08:54:35;;;;;;;76.82;31.85;;;0.70;99.90;;;;;;4998563;28;20470;-87
2022/12/11 08:57:01;;;;;;;74.40;30.83;;;0.60;99.90;;;;;;5004693;28;20423;-85
2022/12/11 08:59:26;;;;;;;77.47;33.90;;;1.10;99.90;;;;;;5010768;28;20424;-86
2022/12/11 09:01:54;;;;;;;71.67;32.83;;;1.00;99.90;;;;;;5007879;28;20432;-85
2022/12/11 09:04:21;;;;;;;72.22;32.25;;;1.00;99.90;;;;;;5008037;28;20436;-85
2022/12/11 09:06:47;;;;;;;76.35;32.05;;;1.00;99.90;;;;;;5011988;28;20444;-82
2022/12/11 09:09:13;;;;;;;84.40;33.63;;;0.80;99.90;;;;;;5010303;28;20515;-85
2022/12/11 09:11:40;;;;;;;82.13;32.50;;;0.90;99.90;;;;;;5002467;28;20432;-82
2022/12/11 09:14:06;;;;;;;93.80;34.30;;;1.20;99.90;;;;;;5019107;28;20439;-85
2022/12/11 09:16:32;;;;;;;79.10;34.83;;;1.30;99.90;;;;;;5011876;28;20744;-84
2022/12/11 09:18:59;;;;;;;80.00;33.28;;;0.90;99.90;;;;;;5011859;28;20425;-85
2022/12/11 09:21:28;;;;;;;84.93;34.50;;;1.10;99.90;;;;;;4997064;28;20466;-85
2022/12/11 09:23:59;;;;;;;80.45;33.17;;;1.00;99.90;;;;;;5010048;28;20424;-80
2022/12/11 09:26:27;;;;;;;71.37;31.73;;;1.40;99.90;;;;;;5013147;28;20606;-84
2022/12/11 09:28:53;;;;;;;71.15;31.50;;;1.40;99.90;;;;;;5020918;28;20459;-81
2022/12/11 09:31:19;;;;;;;82.70;36.00;;;1.10;99.90;;;;;;5010076;28;20432;-83
2022/12/11 09:33:45;;;;;;;79.77;32.53;;;1.50;99.90;;;;;;5011294;28;20934;-83
2022/12/11 09:36:11;;;;;;;78.95;34.35;;;1.30;99.90;;;;;;5009175;28;20427;-82
2022/12/11 09:38:38;;;;;;;73.27;33.20;;;1.30;99.90;;;;;;5010821;28;20425;-83
2022/12/11 09:41:31;;;;;;;81.57;33.90;;;1.20;99.90;;;;;;5013699;28;20941;-82
2022/12/11 09:44:16;;;;;;;65.72;31.45;;;1.20;99.90;;;;;;5013113;28;20447;-83
2022/12/11 09:46:42;;;;;;;71.17;31.97;;;1.20;99.90;;;;;;5010050;28;20512;-82
2022/12/11 09:49:28;;;;;;;86.40;34.72;;;1.10;99.90;;;;;;5010873;28;20424;-81
2022/12/11 09:52:06;;;;;;;78.65;34.13;;;1.40;99.90;;;;;;5015114;28;20420;-77
2022/12/11 09:54:32;;;;;;;74.50;31.52;;;1.00;99.90;;;;;;5015301;28;20428;-79
2022/12/11 09:57:13;;;;;;;64.95;31.92;;;1.50;99.90;;;;;;5013218;28;20409;-79
2022/12/11 10:00:14;;;;;;;76.00;33.47;;;1.60;99.90;;;;;;4993104;28;20812;-79
2022/12/11 10:03:03;;;;;;;70.35;32.10;;;1.40;99.90;;;;;;4995501;28;20477;-81
2022/12/11 10:05:41;;;;;;;69.30;33.13;;;1.60;99.90;;;;;;4989447;28;20933;-79
2022/12/11 10:08:42;;;;;;;67.57;32.92;;;1.60;99.90;;;;;;5008703;28;20511;-81
2022/12/11 10:11:26;;;;;;;75.77;31.63;;;1.40;99.90;;;;;;5010231;28;20516;-80
2022/12/11 10:14:18;;;;;;;69.97;33.30;;;1.50;99.90;;;;;;5010169;28;20416;-80
2022/12/11 10:16:48;;;;;;;75.32;34.63;;;1.50;99.90;;;;;;5009619;28;20412;-80
2022/12/11 10:19:23;;;;;;;67.72;33.85;;;1.30;99.90;;;;;;5010195;28;20974;-80
2022/12/11 10:21:51;;;;;;;71.80;33.88;;;1.60;99.90;;;;;;5006500;28;21029;-82
2022/12/11 10:24:40;;;;;;;70.95;32.70;;;1.40;99.90;;;;;;5009648;28;20429;-77
2022/12/11 10:27:19;;;;;;;73.95;34.22;;;1.50;99.90;;;;;;4996507;28;20417;-80
2022/12/11 10:29:53;;;;;;;62.70;32.70;;;1.50;99.90;;;;;;5010680;28;20432;-79
2022/12/11 10:32:24;;;;;;;67.07;31.35;;;1.60;99.90;;;;;;5009493;28;20434;-82
2022/12/11 10:35:04;;;;;;;65.78;32.08;;;1.80;99.90;;;;;;5011464;28;20436;-79
2022/12/11 10:37:29;;;;;;;64.35;32.42;;;1.80;99.90;;;;;;5011210;28;20493;-78
2022/12/11 10:39:55;;;;;;;63.22;31.75;;;1.60;99.90;;;;;;5010346;28;20507;-78
2022/12/11 10:42:21;;;;;;;66.20;31.98;;;1.90;99.90;;;;;;5006174;28;20493;-80
2022/12/11 10:45:01;;;;;;;65.40;31.97;;;1.90;99.90;;;;;;4992683;28;20525;-78
2022/12/11 10:47:28;;;;;;;67.47;34.20;;;1.40;99.90;;;;;;5007085;28;20803;-79
2022/12/11 10:49:57;;;;;;;67.10;32.10;;;1.40;99.90;;;;;;5009366;28;20432;-78
2022/12/11 10:52:30;;;;;;;56.75;31.58;;;1.70;99.90;;;;;;5009258;28;20421;-78
2022/12/11 10:55:06;;;;;;;62.22;32.00;;;1.60;99.90;;;;;;5010879;28;20488;-77
2022/12/11 10:57:38;;;;;;;64.45;31.30;;;1.80;99.90;;;;;;4993128;28;20409;-78
2022/12/11 11:00:25;;;;;;;60.03;31.17;;;1.90;99.90;;;;;;5007105;28;20502;-78
2022/12/11 11:02:50;;;;;;;62.22;31.30;;;2.00;99.90;;;;;;5010462;28;20420;-78
2022/12/11 11:05:28;;;;;;;68.45;32.85;;;1.60;99.90;;;;;;5011269;28;20415;-79
2022/12/11 11:08:18;;;;;;;60.72;30.02;;;1.70;99.90;;;;;;5010579;28;20430;-80
2022/12/11 11:10:54;;;;;;;61.20;31.95;;;1.70;99.90;;;;;;4991403;28;21027;-80
2022/12/11 11:13:25;;;;;;;56.72;29.90;;;2.00;99.90;;;;;;4998395;28;20433;-80
2022/12/11 11:16:01;;;;;;;53.38;28.27;;;1.90;99.90;;;;;;5009902;28;20420;-80
2022/12/11 11:18:28;;;;;;;55.65;30.35;;;1.70;99.90;;;;;;5022672;28;20472;-77
2022/12/11 11:20:54;;;;;;;62.95;31.50;;;1.70;99.90;;;;;;5027541;28;20548;-80
2022/12/11 11:23:21;;;;;;;54.88;30.95;;;1.60;99.90;;;;;;5030298;28;20404;-80
2022/12/11 11:25:56;;;;;;;60.63;29.37;;;2.10;99.90;;;;;;5026514;28;20879;-79
2022/12/11 11:28:27;;;;;;;52.10;28.70;;;1.80;99.90;;;;;;4990256;28;20474;-80
2022/12/11 11:31:11;;;;;;;51.70;28.50;;;1.80;99.90;;;;;;4995485;28;20416;-81
2022/12/11 11:33:48;;;;;;;51.77;29.23;;;2.00;99.90;;;;;;5009950;28;20409;-81
2022/12/11 11:36:20;;;;;;;52.90;28.38;;;1.80;99.90;;;;;;5009144;28;20405;-79
2022/12/11 11:39:18;;;;;;;59.33;31.25;;;1.90;99.90;;;;;;5009054;28;20480;-78
2022/12/11 11:41:52;;;;;;;55.78;30.92;;;1.90;99.90;;;;;;5021594;28;20467;-78
2022/12/11 11:44:25;;;;;;;56.63;31.25;;;2.00;99.90;;;;;;5029038;28;20780;-76
2022/12/11 11:47:03;;;;;;;56.20;30.85;;;1.90;99.90;;;;;;5029804;28;20414;-78
2022/12/11 11:49:48;;;;;;;56.00;30.27;;;2.20;99.90;;;;;;5011825;28;20480;-80
2022/12/11 11:52:59;;;;;;;53.65;29.15;;;1.80;99.90;;;;;;5010153;28;20404;-79
2022/12/11 11:55:33;;;;;;;49.17;29.80;;;1.90;99.90;;;;;;5004076;28;20427;-80
2022/12/11 11:58:12;;;;;;;57.38;30.55;;;1.90;99.90;;;;;;5009823;28;20408;-79
2022/12/11 12:00:38;;;;;;;51.53;28.15;;;2.00;99.90;;;;;;5008736;28;20436;-79
2022/12/11 12:03:16;;;;;;;56.33;32.23;;;2.20;99.90;;;;;;5009220;28;20427;-79
2022/12/11 12:05:58;;;;;;;56.70;30.67;;;1.80;99.90;;;;;;4992667;28;20404;-80
2022/12/11 12:08:33;;;;;;;50.90;29.58;;;2.20;99.90;;;;;;5009300;28;20456;-79
2022/12/11 12:11:24;;;;;;;56.80;31.70;;;1.80;99.90;;;;;;5009465;28;20868;-80
2022/12/11 12:14:07;;;;;;;53.67;28.90;;;1.80;99.90;;;;;;5016402;28;20485;-80
2022/12/11 12:16:59;;;;;;;54.65;29.90;;;2.30;99.90;;;;;;5028253;28;21047;-81
2022/12/11 12:19:58;;;;;;;50.15;29.00;;;2.00;99.90;;;;;;5010686;28;20770;-78
2022/12/11 12:22:38;;;;;;;54.42;30.08;;;2.10;99.90;;;;;;4992364;28;20447;-79
2022/12/11 12:25:13;;;;;;;49.75;29.05;;;2.10;99.90;;;;;;5004721;28;20425;-80
2022/12/11 12:27:49;;;;;;;49.95;30.77;;;2.10;99.90;;;;;;4989599;28;20975;-80
2022/12/11 12:30:17;;;;;;;53.15;30.52;;;2.20;99.90;;;;;;4989358;28;20446;-78
2022/12/11 12:32:50;;;;;;;54.63;30.95;;;2.20;99.90;;;;;;5003635;28;20787;-78
2022/12/11 12:35:35;;;;;;;56.95;32.50;;;2.10;99.90;;;;;;4988801;28;20412;-78
2022/12/11 12:38:04;;;;;;;48.78;29.45;;;2.20;99.90;;;;;;5028237;28;20407;-77
2022/12/11 12:40:58;;;;;;;52.25;30.27;;;2.20;99.90;;;;;;5028173;28;20427;-78
2022/12/11 12:43:23;;;;;;;47.13;27.15;;;2.10;99.90;;;;;;5018137;28;20418;-79
2022/12/11 12:46:05;;;;;;;46.15;28.73;;;2.00;99.90;;;;;;5006635;28;20415;-80
2022/12/11 12:48:31;;;;;;;48.17;27.85;;;2.10;99.90;;;;;;5008717;28;20767;-78
2022/12/11 12:50:58;;;;;;;50.43;28.47;;;2.00;99.90;;;;;;5006943;28;20425;-80
2022/12/11 12:53:28;;;;;;;45.67;28.88;;;2.20;99.90;;;;;;5008773;28;20417;-80
2022/12/11 12:55:55;;;;;;;47.47;28.27;;;2.30;99.90;;;;;;4991502;28;20422;-79
2022/12/11 12:58:25;;;;;;;44.05;28.08;;;2.30;99.90;;;;;;5005076;28;20420;-77
2022/12/11 13:00:51;;;;;;;48.10;28.70;;;2.10;99.90;;;;;;5007482;28;20524;-77